^^
Your Local Weather - Clay, NY Station Historical Data
Daily Summary for March 11, 2017 Units:  Metric    English   Both
« Previous Day
Next Day »
Daily Weekly Monthly Yearly Custom
  High: Low: Average:
Temperature: -7.9 °C -12.5 °C -10.2 °C
Dew Point: -11.3 °C -19.6 °C -15.7 °C
Humidity: 84% 50% 65%
Wind Speed: 14.5km/h 1.6km/h 8.2km/h
Wind Gust: 25.7km/h - -
Wind- - NW
Pressure: 1026.3 hPa 1019.5 hPa -
Precipitation: 0 mm    
Historical Graphs
 
 
Tabular Data for March 11, 2017
Time Temperature Dew Point Pressure Wind Wind Speed Wind Gust Humidity Rainfall Rate (Hourly) solar
00:00 -11 °C -19.2 °C 1019.5 hPa NNW 8 km/h 9.7 km/h 51% 0 mm 0 W/m2
00:06 -11 °C -19.2 °C 1019.5 hPa West 9.7 km/h 12.9 km/h 51% 0 mm 0 W/m2
00:12 -11.1 °C -19 °C 1019.5 hPa NW 11.3 km/h 11.3 km/h 52% 0 mm 0 W/m2
00:18 -11.1 °C -19.1 °C 1019.5 hPa NW 11.3 km/h 16.1 km/h 52% 0 mm 0 W/m2
00:24 -11.2 °C -18.9 °C 1019.5 hPa NW 8 km/h 11.3 km/h 53% 0 mm 0 W/m2
00:30 -11.2 °C -19.2 °C 1019.9 hPa WNW 6.4 km/h 6.4 km/h 52% 0 mm 0 W/m2
00:36 -11.2 °C -19.4 °C 1019.9 hPa NW 8 km/h 12.9 km/h 51% 0 mm 0 W/m2
00:42 -11.2 °C -19.3 °C 1019.9 hPa NW 8 km/h 25.7 km/h 51% 0 mm 0 W/m2
00:48 -11.1 °C -19.5 °C 1019.5 hPa NNW 9.7 km/h 25.7 km/h 50% 0 mm 0 W/m2
00:54 -11.1 °C -19.1 °C 1019.9 hPa NNW 9.7 km/h 16.1 km/h 52% 0 mm 0 W/m2
01:00 -11.1 °C -19 °C 1019.9 hPa North 11.3 km/h 11.3 km/h 52% 0 mm 0 W/m2
01:06 -11.1 °C -19.4 °C 1019.9 hPa NNW 9.7 km/h 14.5 km/h 50% 0 mm 0 W/m2
01:12 -11.1 °C -19.2 °C 1019.9 hPa NW 12.9 km/h 14.5 km/h 51% 0 mm 0 W/m2
01:18 -11.1 °C -19 °C 1020.2 hPa NNW 9.7 km/h 14.5 km/h 52% 0 mm 0 W/m2
01:24 -11.1 °C -19.2 °C 1020.2 hPa NNW 8 km/h 11.3 km/h 51% 0 mm 0 W/m2
01:30 -11.1 °C -19.2 °C 1020.2 hPa NNW 9.7 km/h 9.7 km/h 51% 0 mm 0 W/m2
01:36 -11.1 °C -19 °C 1019.9 hPa NNW 9.7 km/h 11.3 km/h 52% 0 mm 0 W/m2
01:42 -11.1 °C -18.8 °C 1020.2 hPa NNW 9.7 km/h 25.7 km/h 53% 0 mm 0 W/m2
01:48 -11.1 °C -18.3 °C 1019.9 hPa NW 9.7 km/h 25.7 km/h 55% 0 mm 0 W/m2
01:54 -11.1 °C -18.4 °C 1019.9 hPa NW 11.3 km/h 19.3 km/h 55% 0 mm 0 W/m2
02:00 -11.2 °C -18.4 °C 1019.9 hPa North 14.5 km/h 14.5 km/h 55% 0 mm 0 W/m2
02:06 -11.1 °C -18.6 °C 1019.9 hPa NW 11.3 km/h 14.5 km/h 54% 0 mm 0 W/m2
02:12 -11.1 °C -18.6 °C 1019.9 hPa North 8 km/h 9.7 km/h 54% 0 mm 0 W/m2
02:18 -11.1 °C -18.1 °C 1019.9 hPa NNW 8 km/h 9.7 km/h 56% 0 mm 0 W/m2
02:24 -11.1 °C -18.2 °C 1019.9 hPa North 6.4 km/h 11.3 km/h 56% 0 mm 0 W/m2
02:30 -11.3 °C -18.1 °C 1019.9 hPa North 9.7 km/h 16.1 km/h 57% 0 mm 0 W/m2
02:36 -11.4 °C -18 °C 1019.9 hPa NW 11.3 km/h 16.1 km/h 58% 0 mm 0 W/m2
02:42 -11.6 °C -17.6 °C 1019.9 hPa NNE 11.3 km/h 17.7 km/h 61% 0 mm 0 W/m2
02:48 -11.7 °C -17.3 °C 1019.9 hPa NW 11.3 km/h 17.7 km/h 63% 0 mm 0 W/m2
02:54 -11.8 °C -17.3 °C 1019.9 hPa NNW 11.3 km/h 24.1 km/h 64% 0 mm 0 W/m2
03:00 -11.9 °C -17.2 °C 1019.9 hPa NW 12.9 km/h 12.9 km/h 65% 0 mm 0 W/m2
03:06 -11.9 °C -17 °C 1019.9 hPa North 9.7 km/h 14.5 km/h 66% 0 mm 0 W/m2
03:12 -11.9 °C -17.5 °C 1019.9 hPa NNW 9.7 km/h 12.9 km/h 63% 0 mm 0 W/m2
03:18 -11.9 °C -17.9 °C 1019.9 hPa NNW 11.3 km/h 16.1 km/h 61% 0 mm 0 W/m2
03:24 -11.9 °C -17.7 °C 1020.2 hPa NNW 11.3 km/h 11.3 km/h 62% 0 mm 0 W/m2
03:30 -11.9 °C -17.9 °C 1020.2 hPa North 9.7 km/h 9.7 km/h 61% 0 mm 0 W/m2
03:36 -11.9 °C -17.9 °C 1020.2 hPa North 8 km/h 12.9 km/h 61% 0 mm 0 W/m2
03:42 -12.1 °C -18.4 °C 1020.2 hPa NNW 9.7 km/h 17.7 km/h 59% 0 mm 0 W/m2
03:48 -12.1 °C -18.4 °C 1020.2 hPa NW 9.7 km/h 17.7 km/h 59% 0 mm 0 W/m2
03:54 -12.1 °C -18.3 °C 1020.2 hPa NNW 9.7 km/h 11.3 km/h 60% 0 mm 0 W/m2
04:00 -12.1 °C -18.5 °C 1020.2 hPa NNW 9.7 km/h 14.5 km/h 59% 0 mm 0 W/m2
04:06 -12.2 °C -18.6 °C 1020.2 hPa NW 9.7 km/h 14.5 km/h 59% 0 mm 0 W/m2
04:12 -12.2 °C -18.8 °C 1020.2 hPa NNE 9.7 km/h 16.1 km/h 58% 0 mm 0 W/m2
04:18 -12.3 °C -18.3 °C 1020.2 hPa NNW 9.7 km/h 16.1 km/h 61% 0 mm 0 W/m2
04:24 -12.2 °C -18.8 °C 1020.5 hPa NNW 6.4 km/h 11.3 km/h 58% 0 mm 0 W/m2
04:30 -12.3 °C -19.1 °C 1020.5 hPa North 9.7 km/h 9.7 km/h 57% 0 mm 0 W/m2
04:36 -12.2 °C -19 °C 1020.5 hPa NW 8 km/h 9.7 km/h 57% 0 mm 0 W/m2
04:42 -12.2 °C -19.2 °C 1020.9 hPa NW 4.8 km/h 6.4 km/h 56% 0 mm 0 W/m2
04:48 -12.2 °C -19.2 °C 1020.9 hPa NW 6.4 km/h 9.7 km/h 56% 0 mm 0 W/m2
04:54 -12.2 °C -19.4 °C 1020.9 hPa NW 8 km/h 11.3 km/h 55% 0 mm 0 W/m2
05:00 -12.3 °C -19.5 °C 1020.9 hPa NNW 6.4 km/h 9.7 km/h 55% 0 mm 0 W/m2
05:06 -12.3 °C -19.6 °C 1020.9 hPa North 9.7 km/h 12.9 km/h 55% 0 mm 0 W/m2
05:12 -12.4 °C -19.4 °C 1020.9 hPa NW 8 km/h 9.7 km/h 56% 0 mm 0 W/m2
05:18 -12.4 °C -19.6 °C 1020.9 hPa NW 6.4 km/h 11.3 km/h 55% 0 mm 0 W/m2
05:24 -12.4 °C -19.2 °C 1020.9 hPa NNW 4.8 km/h 6.4 km/h 57% 0 mm 0 W/m2
05:30 -12.4 °C -19.2 °C 1020.9 hPa NNW 4.8 km/h 4.8 km/h 57% 0 mm 0 W/m2
05:36 -12.4 °C -19.4 °C 1020.9 hPa NW 4.8 km/h 8 km/h 56% 0 mm 0 W/m2
05:42 -12.4 °C -19.4 °C 1021.2 hPa NNW 6.4 km/h 9.7 km/h 56% 0 mm 0 W/m2
05:48 -12.4 °C -19 °C 1021.2 hPa NW 4.8 km/h 9.7 km/h 58% 0 mm 0 W/m2
05:54 -12.4 °C -19.2 °C 1021.2 hPa NNW 3.2 km/h 6.4 km/h 57% 0 mm 0 W/m2
06:00 -12.4 °C -19.4 °C 1021.2 hPa NNW 3.2 km/h 3.2 km/h 56% 0 mm 0 W/m2
06:06 -12.4 °C -19.4 °C 1021.2 hPa NW 4.8 km/h 4.8 km/h 56% 0 mm 0 W/m2
06:12 -12.4 °C -19.4 °C 1021.2 hPa NW 4.8 km/h 4.8 km/h 56% 0 mm 0 W/m2
06:18 -12.4 °C -19.4 °C 1021.2 hPa NW 3.2 km/h 4.8 km/h 56% 0 mm 0 W/m2
06:24 -12.5 °C -19.3 °C 1021.2 hPa NW 1.6 km/h 6.4 km/h 57% 0 mm 5 W/m2
06:30 -12.5 °C -19.3 °C 1021.2 hPa NNW 3.2 km/h 4.8 km/h 57% 0 mm 9 W/m2
06:36 -12.4 °C -19.4 °C 1021.6 hPa NW 4.8 km/h 9.7 km/h 56% 0 mm 16 W/m2
06:42 -12.3 °C -19.6 °C 1021.6 hPa WNW 6.4 km/h 6.4 km/h 55% 0 mm 18 W/m2
06:48 -12.3 °C -19.5 °C 1021.6 hPa NNW 4.8 km/h 6.4 km/h 55% 0 mm 25 W/m2
06:54 -12.2 °C -19.2 °C 1021.6 hPa NNW 4.8 km/h 9.7 km/h 56% 0 mm 33 W/m2
07:00 -12.2 °C -19.4 °C 1021.6 hPa NW 6.4 km/h 6.4 km/h 55% 0 mm 35 W/m2
07:06 -12.1 °C -19.1 °C 1021.6 hPa NNW 6.4 km/h 6.4 km/h 56% 0 mm 42 W/m2
07:12 -12 °C -19 °C 1021.9 hPa WNW 3.2 km/h 4.8 km/h 56% 0 mm 44 W/m2
07:18 -11.8 °C -19.1 °C 1021.9 hPa NW 3.2 km/h 6.4 km/h 55% 0 mm 69 W/m2
07:24 -11.7 °C -19.2 °C 1021.9 hPa NW 3.2 km/h 12.9 km/h 54% 0 mm 79 W/m2
07:30 -11.6 °C -19.2 °C 1021.6 hPa NNW 4.8 km/h 4.8 km/h 53% 0 mm 102 W/m2
07:36 -11.4 °C -19.1 °C 1021.6 hPa WNW 6.4 km/h 6.4 km/h 53% 0 mm 77 W/m2
07:42 -11.2 °C -18.9 °C 1021.9 hPa NW 6.4 km/h 9.7 km/h 53% 0 mm 83 W/m2
07:48 -11.1 °C -18.8 °C 1021.9 hPa NNW 6.4 km/h 9.7 km/h 53% 0 mm 137 W/m2
07:54 -11 °C -18.9 °C 1021.9 hPa North 8 km/h 11.3 km/h 52% 0 mm 125 W/m2
08:00 -11.1 °C -18.8 °C 1021.9 hPa NW 9.7 km/h 9.7 km/h 53% 0 mm 137 W/m2
08:06 -10.9 °C -18.6 °C 1021.9 hPa NNW 8 km/h 11.3 km/h 53% 0 mm 156 W/m2
08:12 -10.8 °C -18.8 °C 1021.9 hPa NW 8 km/h 8 km/h 52% 0 mm 171 W/m2
08:18 -10.9 °C -18.8 °C 1021.9 hPa NW 8 km/h 11.3 km/h 52% 0 mm 144 W/m2
08:24 -10.9 °C -18.9 °C 1021.9 hPa NW 8 km/h 9.7 km/h 52% 0 mm 162 W/m2
08:30 -10.9 °C -18.6 °C 1021.9 hPa NW 8 km/h 8 km/h 53% 0 mm 185 W/m2
08:36 -10.8 °C -18.3 °C 1021.9 hPa NW 8 km/h 11.3 km/h 54% 0 mm 186 W/m2
08:42 -10.6 °C -18.1 °C 1021.9 hPa NNW 8 km/h 12.9 km/h 54% 0 mm 190 W/m2
08:48 -10.3 °C -17.9 °C 1021.9 hPa WNW 8 km/h 16.1 km/h 54% 0 mm 271 W/m2
08:54 -10.2 °C -17.7 °C 1021.9 hPa North 8 km/h 11.3 km/h 54% 0 mm 227 W/m2
09:00 -10.2 °C -17.9 °C 1021.9 hPa NW 8 km/h 20.9 km/h 53% 0 mm 250 W/m2
09:06 -10.4 °C -17.9 °C 1022.2 hPa NW 11.3 km/h 20.9 km/h 54% 0 mm 308 W/m2
09:12 -10.2 °C -17.6 °C 1021.9 hPa NW 9.7 km/h 11.3 km/h 55% 0 mm 255 W/m2
09:18 -10.4 °C -17.3 °C 1022.2 hPa NNW 9.7 km/h 16.1 km/h 57% 0 mm 223 W/m2
09:24 -10.4 °C -16.9 °C 1021.9 hPa NW 9.7 km/h 20.9 km/h 59% 0 mm 244 W/m2
09:30 -10.4 °C -17.1 °C 1022.2 hPa NW 9.7 km/h 9.7 km/h 58% 0 mm 322 W/m2
09:36 -10 °C -16.7 °C 1021.9 hPa NW 6.4 km/h 9.7 km/h 58% 0 mm 316 W/m2
09:42 -10.1 °C -16.9 °C 1021.9 hPa WNW 8 km/h 11.3 km/h 57% 0 mm 241 W/m2
09:48 -10.2 °C -17.1 °C 1021.9 hPa NNW 11.3 km/h 17.7 km/h 57% 0 mm 236 W/m2
09:54 -9.9 °C -16.9 °C 1021.9 hPa West 9.7 km/h 14.5 km/h 57% 0 mm 353 W/m2
10:00 -9.7 °C -16.9 °C 1021.9 hPa WNW 9.7 km/h 9.7 km/h 56% 0 mm 288 W/m2
10:06 -9.7 °C -16.8 °C 1021.9 hPa WNW 11.3 km/h 19.3 km/h 56% 0 mm 348 W/m2
10:12 -9.7 °C -16.6 °C 1021.9 hPa WNW 9.7 km/h 11.3 km/h 57% 0 mm 390 W/m2
10:18 -9.2 °C -16.3 °C 1021.9 hPa NW 9.7 km/h 16.1 km/h 56% 0 mm 371 W/m2
10:24 -9.4 °C -16.6 °C 1021.9 hPa NW 9.7 km/h 9.7 km/h 56% 0 mm 292 W/m2
10:30 -9.3 °C -16.5 °C 1021.9 hPa NNW 9.7 km/h 20.9 km/h 56% 0 mm 364 W/m2
10:36 -9.4 °C -16.6 °C 1021.9 hPa NW 9.7 km/h 20.9 km/h 56% 0 mm 367 W/m2
10:42 -9.7 °C -16.2 °C 1021.9 hPa WNW 11.3 km/h 11.3 km/h 59% 0 mm 357 W/m2
10:48 -9.6 °C -16.3 °C 1021.9 hPa West 11.3 km/h 16.1 km/h 58% 0 mm 381 W/m2
10:54 -9.6 °C -15.9 °C 1021.9 hPa NNW 11.3 km/h 14.5 km/h 60% 0 mm 332 W/m2
11:00 -9.7 °C -16.2 °C 1021.9 hPa WNW 9.7 km/h 12.9 km/h 59% 0 mm 357 W/m2
11:06 -9.4 °C -15.7 °C 1021.9 hPa NW 9.7 km/h 16.1 km/h 60% 0 mm 376 W/m2
11:12 -9.2 °C -15.2 °C 1021.9 hPa WNW 8 km/h 12.9 km/h 62% 0 mm 390 W/m2
11:18 -9.2 °C -14.9 °C 1021.9 hPa WNW 8 km/h 14.5 km/h 63% 0 mm 394 W/m2
11:24 -9.2 °C -14.7 °C 1021.9 hPa WNW 8 km/h 9.7 km/h 64% 0 mm 283 W/m2
11:30 -9.6 °C -14.9 °C 1021.9 hPa NNW 9.7 km/h 19.3 km/h 65% 0 mm 362 W/m2
11:36 -9.3 °C -14.7 °C 1021.9 hPa WNW 9.7 km/h 19.3 km/h 65% 0 mm 346 W/m2
11:42 -9.4 °C -14.8 °C 1021.9 hPa NW 9.7 km/h 11.3 km/h 65% 0 mm 452 W/m2
11:48 -9 °C -14.6 °C 1021.9 hPa WNW 9.7 km/h 11.3 km/h 64% 0 mm 390 W/m2
11:54 -9.1 °C -14.8 °C 1021.9 hPa WNW 9.7 km/h 11.3 km/h 63% 0 mm 441 W/m2
12:00 -8.8 °C -14.8 °C 1021.9 hPa NNW 9.7 km/h 9.7 km/h 62% 0 mm 353 W/m2
12:06 -8.8 °C -14.6 °C 1021.9 hPa NNW 9.7 km/h 14.5 km/h 63% 0 mm 438 W/m2
12:12 -9.2 °C -14.6 °C 1021.9 hPa North 9.7 km/h 9.7 km/h 65% 0 mm 287 W/m2
12:18 -8.9 °C -14.7 °C 1021.9 hPa WNW 8 km/h 11.3 km/h 63% 0 mm 279 W/m2
12:24 -9 °C -14.2 °C 1021.9 hPa NW 8 km/h 12.9 km/h 66% 0 mm 322 W/m2
12:30 -8.8 °C -14.6 °C 1021.9 hPa WNW 9.7 km/h 9.7 km/h 63% 0 mm 294 W/m2
12:36 -8.5 °C -14.1 °C 1021.9 hPa NW 8 km/h 9.7 km/h 64% 0 mm 417 W/m2
12:42 -8.7 °C -14.3 °C 1021.6 hPa NW 9.7 km/h 9.7 km/h 64% 0 mm 380 W/m2
12:48 -8.5 °C -13.9 °C 1021.6 hPa WSW 11.3 km/h 17.7 km/h 65% 0 mm 334 W/m2
12:54 -8.4 °C -14.4 °C 1021.6 hPa NW 9.7 km/h 14.5 km/h 62% 0 mm 283 W/m2
13:00 -8.3 °C -14.3 °C 1021.6 hPa WNW 9.7 km/h 9.7 km/h 62% 0 mm 223 W/m2
13:06 -8.2 °C -14.4 °C 1021.6 hPa NW 8 km/h 11.3 km/h 61% 0 mm 267 W/m2
13:12 -8.3 °C -14.7 °C 1021.6 hPa West 9.7 km/h 9.7 km/h 60% 0 mm 281 W/m2
13:40 -9.3 °C -12.8 °C 1021.6 hPa WNW 9.7 km/h 9.7 km/h 76% 0 mm 79 W/m2
13:46 -9.6 °C -12.5 °C 1021.9 hPa WNW 9.7 km/h 12.9 km/h 79% 0 mm 84 W/m2
13:52 -9.7 °C -12.2 °C 1021.6 hPa NW 9.7 km/h 12.9 km/h 82% 0 mm 190 W/m2
13:58 -9.6 °C -11.8 °C 1021.9 hPa WNW 9.7 km/h 12.9 km/h 84% 0 mm 174 W/m2
14:04 -9.6 °C -11.8 °C 1021.9 hPa NW 8 km/h 12.9 km/h 84% 0 mm 174 W/m2
14:10 -9.6 °C -11.8 °C 1021.9 hPa WSW 9.7 km/h 16.1 km/h 84% 0 mm 144 W/m2
14:16 -9.6 °C -11.8 °C 1021.9 hPa WNW 9.7 km/h 16.1 km/h 84% 0 mm 160 W/m2
14:22 -9.6 °C -11.9 °C 1021.6 hPa NNW 9.7 km/h 9.7 km/h 83% 0 mm 262 W/m2
14:28 -9.3 °C -12.1 °C 1021.9 hPa NNW 11.3 km/h 16.1 km/h 80% 0 mm 213 W/m2
14:34 -9.1 °C -11.9 °C 1021.9 hPa NW 11.3 km/h 14.5 km/h 80% 0 mm 336 W/m2
14:40 -9 °C -11.7 °C 1021.9 hPa WNW 9.7 km/h 9.7 km/h 81% 0 mm 195 W/m2
14:46 -9.2 °C -12.4 °C 1021.9 hPa WNW 9.7 km/h 17.7 km/h 77% 0 mm 155 W/m2
14:52 -9.4 °C -12.7 °C 1021.9 hPa West 11.3 km/h 11.3 km/h 77% 0 mm 243 W/m2
14:58 -9.4 °C -12.3 °C 1021.9 hPa NW 11.3 km/h 14.5 km/h 79% 0 mm 243 W/m2
15:04 -9.4 °C -12.1 °C 1021.9 hPa NW 11.3 km/h 17.7 km/h 81% 0 mm 362 W/m2
15:10 -9.1 °C -11.9 °C 1021.9 hPa WNW 9.7 km/h 9.7 km/h 80% 0 mm 156 W/m2
15:16 -8.7 °C -12.1 °C 1021.9 hPa NW 9.7 km/h 9.7 km/h 76% 0 mm 524 W/m2
15:22 -8.1 °C -12.6 °C 1021.9 hPa WNW 9.7 km/h 9.7 km/h 70% 0 mm 434 W/m2
15:28 -7.9 °C -12.6 °C 1021.6 hPa WNW 9.7 km/h 14.5 km/h 69% 0 mm 439 W/m2
15:34 -8.1 °C -13.2 °C 1021.9 hPa WNW 11.3 km/h 19.3 km/h 67% 0 mm 218 W/m2
15:40 -8.1 °C -13.7 °C 1021.9 hPa NW 11.3 km/h 11.3 km/h 64% 0 mm 262 W/m2
15:46 -8.6 °C -12.9 °C 1021.9 hPa WNW 11.3 km/h 12.9 km/h 71% 0 mm 100 W/m2
15:52 -9.1 °C -12.4 °C 1021.9 hPa WNW 11.3 km/h 11.3 km/h 77% 0 mm 146 W/m2
15:58 -9.1 °C -12.1 °C 1021.9 hPa NW 9.7 km/h 16.1 km/h 79% 0 mm 241 W/m2
16:04 -8.8 °C -12 °C 1021.9 hPa NW 9.7 km/h 9.7 km/h 78% 0 mm 206 W/m2
16:10 -8.9 °C -12.1 °C 1022.2 hPa WNW 9.7 km/h 9.7 km/h 78% 0 mm 130 W/m2
16:16 -9.1 °C -11.9 °C 1022.2 hPa North 8 km/h 9.7 km/h 80% 0 mm 72 W/m2
16:22 -9.4 °C -11.9 °C 1022.2 hPa WNW 9.7 km/h 9.7 km/h 82% 0 mm 95 W/m2
16:28 -9.2 °C -11.4 °C 1022.2 hPa NNW 6.4 km/h 9.7 km/h 84% 0 mm 125 W/m2
16:34 -9.2 °C -11.4 °C 1022.2 hPa WNW 6.4 km/h 12.9 km/h 84% 0 mm 84 W/m2
16:40 -9.2 °C -11.4 °C 1022.6 hPa WNW 8 km/h 8 km/h 84% 0 mm 134 W/m2
16:46 -9.1 °C -11.3 °C 1022.6 hPa NW 6.4 km/h 9.7 km/h 84% 0 mm 109 W/m2
16:52 -9.2 °C -11.4 °C 1022.6 hPa NW 8 km/h 8 km/h 84% 0 mm 63 W/m2
16:58 -9.4 °C -11.6 °C 1022.6 hPa West 8 km/h 14.5 km/h 84% 0 mm 51 W/m2
17:04 -9.4 °C -11.7 °C 1022.6 hPa NW 8 km/h 16.1 km/h 84% 0 mm 58 W/m2
17:10 -9.4 °C -11.7 °C 1022.6 hPa NW 8 km/h 8 km/h 84% 0 mm 60 W/m2
17:16 -9.4 °C -11.8 °C 1022.6 hPa WNW 8 km/h 9.7 km/h 83% 0 mm 37 W/m2
17:22 -9.3 °C -11.8 °C 1022.6 hPa NNW 8 km/h 9.7 km/h 82% 0 mm 33 W/m2
17:28 -9.2 °C -12.1 °C 1022.6 hPa WNW 8 km/h 14.5 km/h 80% 0 mm 23 W/m2
17:34 -9.2 °C -12.2 °C 1022.6 hPa WNW 8 km/h 8 km/h 79% 0 mm 26 W/m2
17:40 -9.2 °C -12.3 °C 1022.6 hPa NNW 8 km/h 12.9 km/h 78% 0 mm 37 W/m2
17:46 -9.2 °C -12.8 °C 1022.6 hPa NW 9.7 km/h 14.5 km/h 75% 0 mm 14 W/m2
17:52 -9.1 °C -13.3 °C 1022.6 hPa West 11.3 km/h 11.3 km/h 71% 0 mm 12 W/m2
17:58 -9.1 °C -13.7 °C 1022.6 hPa WNW 9.7 km/h 14.5 km/h 69% 0 mm 7 W/m2
18:04 -9 °C -13.7 °C 1022.6 hPa NNW 9.7 km/h 16.1 km/h 69% 0 mm 5 W/m2
18:10 -8.9 °C -13.8 °C 1022.6 hPa WNW 8 km/h 8 km/h 68% 0 mm 0 W/m2
18:16 -8.9 °C -13.6 °C 1022.6 hPa NW 8 km/h 12.9 km/h 69% 0 mm 0 W/m2
18:22 -8.9 °C -13.2 °C 1022.9 hPa WNW 8 km/h 12.9 km/h 71% 0 mm 0 W/m2
18:28 -9.2 °C -12.9 °C 1022.9 hPa WSW 8 km/h 14.5 km/h 74% 0 mm 0 W/m2
18:34 -9.2 °C -13 °C 1022.9 hPa NW 8 km/h 17.7 km/h 74% 0 mm 0 W/m2
18:40 -9.2 °C -13.1 °C 1022.9 hPa WNW 9.7 km/h 12.9 km/h 73% 0 mm 0 W/m2
18:46 -9.1 °C -13.2 °C 1022.9 hPa WNW 8 km/h 12.9 km/h 72% 0 mm 0 W/m2
18:52 -9.1 °C -13.3 °C 1022.9 hPa NW 6.4 km/h 9.7 km/h 71% 0 mm 0 W/m2
18:58 -9 °C -13.5 °C 1022.9 hPa NW 8 km/h 20.9 km/h 70% 0 mm 0 W/m2
19:04 -9 °C -13.5 °C 1022.9 hPa WNW 8 km/h 14.5 km/h 70% 0 mm 0 W/m2
19:10 -9 °C -13.5 °C 1023.2 hPa North 6.4 km/h 16.1 km/h 70% 0 mm 0 W/m2
19:16 -9.1 °C -13 °C 1023.2 hPa NNW 8 km/h 16.1 km/h 73% 0 mm 0 W/m2
19:22 -9.3 °C -12.6 °C 1023.6 hPa NNW 8 km/h 8 km/h 77% 0 mm 0 W/m2
19:28 -9.4 °C -12.3 °C 1023.6 hPa NNW 6.4 km/h 8 km/h 79% 0 mm 0 W/m2
19:34 -9.4 °C -12.2 °C 1023.6 hPa NW 4.8 km/h 12.9 km/h 80% 0 mm 0 W/m2
19:40 -9.4 °C -12.1 °C 1023.6 hPa NW 6.4 km/h 6.4 km/h 81% 0 mm 0 W/m2
19:46 -9.4 °C -12.1 °C 1023.6 hPa WNW 6.4 km/h 9.7 km/h 81% 0 mm 0 W/m2
19:52 -9.3 °C -11.8 °C 1023.6 hPa WNW 6.4 km/h 6.4 km/h 82% 0 mm 0 W/m2
19:58 -9.2 °C -11.7 °C 1023.6 hPa WNW 6.4 km/h 11.3 km/h 82% 0 mm 0 W/m2
20:04 -9.2 °C -11.7 °C 1023.6 hPa WNW 6.4 km/h 6.4 km/h 82% 0 mm 0 W/m2
20:10 -9.2 °C -11.7 °C 1023.6 hPa WNW 6.4 km/h 6.4 km/h 82% 0 mm 0 W/m2
20:16 -9.3 °C -11.8 °C 1023.6 hPa WSW 4.8 km/h 8 km/h 82% 0 mm 0 W/m2
20:22 -9.2 °C -12 °C 1023.6 hPa WNW 4.8 km/h 8 km/h 80% 0 mm 0 W/m2
20:28 -9 °C -12.4 °C 1023.6 hPa NW 4.8 km/h 8 km/h 76% 0 mm 0 W/m2
20:34 -8.9 °C -12.8 °C 1023.6 hPa WNW 8 km/h 9.7 km/h 73% 0 mm 0 W/m2
20:40 -8.9 °C -12.7 °C 1023.9 hPa NNW 8 km/h 9.7 km/h 74% 0 mm 0 W/m2
20:46 -8.9 °C -12.6 °C 1023.9 hPa WNW 6.4 km/h 9.7 km/h 75% 0 mm 0 W/m2
20:52 -9 °C -12.4 °C 1023.9 hPa NNW 6.4 km/h 6.4 km/h 76% 0 mm 0 W/m2
20:58 -9.1 °C -12.2 °C 1023.9 hPa NW 8 km/h 8 km/h 78% 0 mm 0 W/m2
21:04 -9.1 °C -12.2 °C 1023.9 hPa NW 6.4 km/h 9.7 km/h 78% 0 mm 0 W/m2
21:10 -8.9 °C -12.4 °C 1024.3 hPa North 4.8 km/h 4.8 km/h 76% 0 mm 0 W/m2
21:16 -8.9 °C -12.7 °C 1024.3 hPa NNW 6.4 km/h 11.3 km/h 74% 0 mm 0 W/m2
21:22 -8.8 °C -13.2 °C 1024.3 hPa NW 6.4 km/h 6.4 km/h 71% 0 mm 0 W/m2
21:28 -8.8 °C -13.8 °C 1024.3 hPa NW 8 km/h 8 km/h 67% 0 mm 0 W/m2
21:34 -8.8 °C -13.8 °C 1024.3 hPa NW 9.7 km/h 9.7 km/h 67% 0 mm 0 W/m2
21:40 -8.8 °C -14.1 °C 1024.3 hPa NNW 8 km/h 8 km/h 66% 0 mm 0 W/m2
21:46 -8.8 °C -14.2 °C 1024.3 hPa NW 8 km/h 9.7 km/h 65% 0 mm 0 W/m2
21:52 -8.8 °C -14.8 °C 1024.6 hPa NW 8 km/h 12.9 km/h 62% 0 mm 0 W/m2
21:58 -8.9 °C -14.3 °C 1024.6 hPa WNW 8 km/h 12.9 km/h 65% 0 mm 0 W/m2
22:04 -9.1 °C -14.3 °C 1024.6 hPa NW 8 km/h 8 km/h 66% 0 mm 0 W/m2
22:10 -9.2 °C -14.2 °C 1024.9 hPa NNW 6.4 km/h 6.4 km/h 67% 0 mm 0 W/m2
22:16 -9.2 °C -14.4 °C 1024.9 hPa NNW 4.8 km/h 6.4 km/h 66% 0 mm 0 W/m2
22:22 -9.3 °C -14.4 °C 1025.3 hPa West 6.4 km/h 12.9 km/h 66% 0 mm 0 W/m2
22:28 -9.6 °C -14.6 °C 1025.3 hPa NNW 9.7 km/h 20.9 km/h 67% 0 mm 0 W/m2
22:34 -9.6 °C -14.6 °C 1025.3 hPa NNW 8 km/h 22.5 km/h 67% 0 mm 0 W/m2
22:40 -9.7 °C -14.9 °C 1025.3 hPa NW 8 km/h 8 km/h 66% 0 mm 0 W/m2
22:46 -9.8 °C -15.3 °C 1025.3 hPa NW 9.7 km/h 11.3 km/h 64% 0 mm 0 W/m2
22:52 -9.8 °C -15.3 °C 1025.3 hPa NW 6.4 km/h 8 km/h 64% 0 mm 0 W/m2
22:58 -9.8 °C -15.4 °C 1025.3 hPa NNW 4.8 km/h 8 km/h 64% 0 mm 0 W/m2
23:04 -9.9 °C -15.4 °C 1025.3 hPa NW 4.8 km/h 9.7 km/h 64% 0 mm 0 W/m2
23:10 -10 °C -15.7 °C 1025.3 hPa NW 6.4 km/h 6.4 km/h 63% 0 mm 0 W/m2
23:16 -10.1 °C -15.9 °C 1025.6 hPa NW 6.4 km/h 8 km/h 62% 0 mm 0 W/m2
23:22 -10.2 °C -16.3 °C 1025.6 hPa NNW 6.4 km/h 16.1 km/h 61% 0 mm 0 W/m2
23:28 -10.2 °C -16.5 °C 1025.6 hPa NW 6.4 km/h 16.1 km/h 60% 0 mm 0 W/m2
23:34 -10.3 °C -16.4 °C 1025.6 hPa NNW 4.8 km/h 11.3 km/h 61% 0 mm 0 W/m2
23:40 -10.4 °C -16.5 °C 1026 hPa NW 6.4 km/h 6.4 km/h 61% 0 mm 0 W/m2
23:46 -10.5 °C -16.2 °C 1026 hPa North 4.8 km/h 6.4 km/h 63% 0 mm 0 W/m2
23:52 -10.6 °C -15.9 °C 1026.3 hPa NW 4.8 km/h 4.8 km/h 65% 0 mm 0 W/m2
23:58 -10.6 °C -15.9 °C 1026.3 hPa NNW 4.8 km/h 9.7 km/h 65% 0 mm 0 W/m2
Country Meadow, Clay, NY, USA
Compliments of Weather Underground - 2 mb